sensor_id;sensor_type;location;lat;lon;timestamp;pressure;altitude;pressure_sealevel;temperature;humidity
60465;BME280;46314;52.392;9.758;2023-08-31T00:02:06;99904.94;;;15.69;100.00
60465;BME280;46314;52.392;9.758;2023-08-31T00:04:33;99914.22;;;15.85;100.00
60465;BME280;46314;52.392;9.758;2023-08-31T00:06:59;99902.63;;;15.99;100.00
60465;BME280;46314;52.392;9.758;2023-08-31T00:09:26;99910.22;;;15.86;100.00
60465;BME280;46314;52.392;9.758;2023-08-31T00:11:52;99905.25;;;15.80;100.00
60465;BME280;46314;52.392;9.758;2023-08-31T00:14:19;99913.03;;;15.33;100.00
60465;BME280;46314;52.392;9.758;2023-08-31T00:16:45;99905.16;;;15.23;100.00
60465;BME280;46314;52.392;9.758;2023-08-31T00:19:13;99905.97;;;15.64;100.00
60465;BME280;46314;52.392;9.758;2023-08-31T00:21:40;99911.88;;;15.34;100.00
60465;BME280;46314;52.392;9.758;2023-08-31T00:24:07;99909.50;;;15.49;100.00
60465;BME280;46314;52.392;9.758;2023-08-31T00:26:33;99909.59;;;15.00;100.00
60465;BME280;46314;52.392;9.758;2023-08-31T00:29:00;99902.66;;;15.87;100.00
60465;BME280;46314;52.392;9.758;2023-08-31T00:31:26;99902.81;;;15.78;100.00
60465;BME280;46314;52.392;9.758;2023-08-31T00:33:53;99911.53;;;15.36;100.00
60465;BME280;46314;52.392;9.758;2023-08-31T00:36:21;99913.28;;;15.28;100.00
60465;BME280;46314;52.392;9.758;2023-08-31T00:38:47;99910.84;;;15.80;100.00
60465;BME280;46314;52.392;9.758;2023-08-31T00:41:14;99914.47;;;15.15;100.00
60465;BME280;46314;52.392;9.758;2023-08-31T00:43:40;99914.25;;;15.08;100.00
60465;BME280;46314;52.392;9.758;2023-08-31T00:46:06;99912.34;;;15.24;100.00
60465;BME280;46314;52.392;9.758;2023-08-31T00:48:33;99910.28;;;15.09;100.00
60465;BME280;46314;52.392;9.758;2023-08-31T00:51:00;99908.44;;;15.01;100.00
60465;BME280;46314;52.392;9.758;2023-08-31T00:53:29;99917.97;;;14.75;100.00
60465;BME280;46314;52.392;9.758;2023-08-31T00:55:56;99919.13;;;15.11;100.00
60465;BME280;46314;52.392;9.758;2023-08-31T00:58:22;99922.03;;;15.80;100.00
60465;BME280;46314;52.392;9.758;2023-08-31T01:00:56;99921.09;;;14.98;100.00
60465;BME280;46314;52.392;9.758;2023-08-31T01:03:33;99911.78;;;15.06;100.00
60465;BME280;46314;52.392;9.758;2023-08-31T01:06:06;99920.97;;;15.19;100.00
60465;BME280;46314;52.392;9.758;2023-08-31T01:08:40;99918.72;;;15.37;100.00
60465;BME280;46314;52.392;9.758;2023-08-31T01:11:15;99917.56;;;15.38;100.00
60465;BME280;46314;52.392;9.758;2023-08-31T01:13:47;99917.97;;;14.87;100.00
60465;BME280;46314;52.392;9.758;2023-08-31T01:16:18;99917.84;;;14.71;100.00
60465;BME280;46314;52.392;9.758;2023-08-31T01:18:47;99920.84;;;15.15;100.00
60465;BME280;46314;52.392;9.758;2023-08-31T01:21:20;99916.81;;;14.76;100.00
60465;BME280;46314;52.392;9.758;2023-08-31T01:23:53;99927.50;;;15.11;100.00
60465;BME280;46314;52.392;9.758;2023-08-31T01:26:20;99927.03;;;14.96;100.00
60465;BME280;46314;52.392;9.758;2023-08-31T01:28:48;99917.63;;;14.76;100.00
60465;BME280;46314;52.392;9.758;2023-08-31T01:31:15;99932.38;;;15.14;100.00
60465;BME280;46314;52.392;9.758;2023-08-31T01:33:41;99931.91;;;15.12;100.00
60465;BME280;46314;52.392;9.758;2023-08-31T01:36:12;99925.53;;;15.11;100.00
60465;BME280;46314;52.392;9.758;2023-08-31T01:38:41;99933.56;;;14.88;100.00
60465;BME280;46314;52.392;9.758;2023-08-31T01:41:13;99932.63;;;15.09;100.00
60465;BME280;46314;52.392;9.758;2023-08-31T01:43:42;99929.13;;;14.87;100.00
60465;BME280;46314;52.392;9.758;2023-08-31T01:46:10;99935.31;;;14.47;100.00
60465;BME280;46314;52.392;9.758;2023-08-31T01:48:39;99937.28;;;14.92;100.00
60465;BME280;46314;52.392;9.758;2023-08-31T01:51:07;99942.97;;;14.71;100.00
60465;BME280;46314;52.392;9.758;2023-08-31T01:53:33;99945.09;;;14.87;100.00
60465;BME280;46314;52.392;9.758;2023-08-31T01:56:00;99949.88;;;14.99;100.00
60465;BME280;46314;52.392;9.758;2023-08-31T01:58:28;99953.47;;;15.11;100.00
60465;BME280;46314;52.392;9.758;2023-08-31T02:00:54;99961.16;;;15.02;100.00
60465;BME280;46314;52.392;9.758;2023-08-31T02:03:21;99960.28;;;14.65;100.00
60465;BME280;46314;52.392;9.758;2023-08-31T02:05:47;99964.06;;;14.48;100.00
60465;BME280;46314;52.392;9.758;2023-08-31T02:08:14;99963.81;;;14.74;100.00
60465;BME280;46314;52.392;9.758;2023-08-31T02:10:40;99955.00;;;14.17;100.00
60465;BME280;46314;52.392;9.758;2023-08-31T02:13:07;99962.63;;;14.75;100.00
60465;BME280;46314;52.392;9.758;2023-08-31T02:15:37;99952.25;;;14.30;100.00
60465;BME280;46314;52.392;9.758;2023-08-31T02:18:04;99960.44;;;14.47;100.00
60465;BME280;46314;52.392;9.758;2023-08-31T02:20:31;99958.25;;;14.41;100.00
60465;BME280;46314;52.392;9.758;2023-08-31T02:22:57;99963.22;;;14.47;100.00
60465;BME280;46314;52.392;9.758;2023-08-31T02:25:24;99962.56;;;14.50;100.00
60465;BME280;46314;52.392;9.758;2023-08-31T02:27:50;99965.69;;;14.49;100.00
60465;BME280;46314;52.392;9.758;2023-08-31T02:30:17;99968.53;;;14.61;100.00
60465;BME280;46314;52.392;9.758;2023-08-31T02:32:45;99970.06;;;14.58;100.00
60465;BME280;46314;52.392;9.758;2023-08-31T02:35:12;99969.00;;;14.75;100.00
60465;BME280;46314;52.392;9.758;2023-08-31T02:37:38;99976.38;;;14.47;100.00
60465;BME280;46314;52.392;9.758;2023-08-31T02:40:05;99970.50;;;14.27;100.00
60465;BME280;46314;52.392;9.758;2023-08-31T02:42:32;99967.03;;;14.64;100.00
60465;BME280;46314;52.392;9.758;2023-08-31T02:44:58;99983.66;;;14.60;100.00
60465;BME280;46314;52.392;9.758;2023-08-31T02:47:25;99975.66;;;14.37;100.00
60465;BME280;46314;52.392;9.758;2023-08-31T02:49:52;99974.97;;;14.41;100.00
60465;BME280;46314;52.392;9.758;2023-08-31T02:52:19;99975.41;;;14.64;100.00
60465;BME280;46314;52.392;9.758;2023-08-31T02:54:45;99969.38;;;14.28;100.00
60465;BME280;46314;52.392;9.758;2023-08-31T02:57:12;99978.91;;;14.39;100.00
60465;BME280;46314;52.392;9.758;2023-08-31T02:59:38;99978.31;;;14.67;100.00
60465;BME280;46314;52.392;9.758;2023-08-31T03:02:05;99976.09;;;14.27;100.00
60465;BME280;46314;52.392;9.758;2023-08-31T03:04:32;99972.66;;;14.43;100.00
60465;BME280;46314;52.392;9.758;2023-08-31T03:06:59;99964.66;;;14.53;100.00
60465;BME280;46314;52.392;9.758;2023-08-31T03:09:26;99971.81;;;14.09;100.00
60465;BME280;46314;52.392;9.758;2023-08-31T03:11:52;99968.91;;;13.84;100.00
60465;BME280;46314;52.392;9.758;2023-08-31T03:14:19;99970.34;;;14.11;100.00
60465;BME280;46314;52.392;9.758;2023-08-31T03:16:45;99971.25;;;14.49;100.00
60465;BME280;46314;52.392;9.758;2023-08-31T03:19:12;99974.44;;;14.26;100.00
60465;BME280;46314;52.392;9.758;2023-08-31T03:21:38;99966.03;;;14.14;100.00
60465;BME280;46314;52.392;9.758;2023-08-31T03:24:06;99964.47;;;14.25;100.00
60465;BME280;46314;52.392;9.758;2023-08-31T03:26:33;99963.19;;;14.01;100.00
60465;BME280;46314;52.392;9.758;2023-08-31T03:28:59;99969.63;;;14.81;100.00
60465;BME280;46314;52.392;9.758;2023-08-31T03:31:26;99970.13;;;14.16;100.00
60465;BME280;46314;52.392;9.758;2023-08-31T03:33:52;99965.59;;;13.91;100.00
60465;BME280;46314;52.392;9.758;2023-08-31T03:36:19;99966.59;;;14.07;100.00
60465;BME280;46314;52.392;9.758;2023-08-31T03:38:45;99966.44;;;13.91;100.00
60465;BME280;46314;52.392;9.758;2023-08-31T03:41:13;99968.81;;;14.14;100.00
60465;BME280;46314;52.392;9.758;2023-08-31T03:43:40;99967.81;;;14.18;100.00
60465;BME280;46314;52.392;9.758;2023-08-31T03:46:06;99975.09;;;14.11;100.00
60465;BME280;46314;52.392;9.758;2023-08-31T03:48:33;99972.06;;;13.82;100.00
60465;BME280;46314;52.392;9.758;2023-08-31T03:50:59;99978.59;;;13.87;100.00
60465;BME280;46314;52.392;9.758;2023-08-31T03:53:26;99980.97;;;13.97;100.00
60465;BME280;46314;52.392;9.758;2023-08-31T03:55:52;99986.00;;;14.04;100.00
60465;BME280;46314;52.392;9.758;2023-08-31T03:58:20;99988.69;;;14.12;100.00
60465;BME280;46314;52.392;9.758;2023-08-31T04:00:49;99986.59;;;14.09;100.00
60465;BME280;46314;52.392;9.758;2023-08-31T04:03:15;99994.13;;;13.88;100.00
60465;BME280;46314;52.392;9.758;2023-08-31T04:05:42;99987.25;;;14.27;100.00
60465;BME280;46314;52.392;9.758;2023-08-31T04:08:09;100001.47;;;14.68;100.00
60465;BME280;46314;52.392;9.758;2023-08-31T04:10:35;99992.75;;;14.36;100.00
60465;BME280;46314;52.392;9.758;2023-08-31T04:13:02;99999.03;;;14.45;100.00
60465;BME280;46314;52.392;9.758;2023-08-31T04:15:31;99997.44;;;14.44;100.00
60465;BME280;46314;52.392;9.758;2023-08-31T04:17:58;100004.38;;;14.71;100.00
60465;BME280;46314;52.392;9.758;2023-08-31T04:20:24;100006.38;;;14.83;100.00
60465;BME280;46314;52.392;9.758;2023-08-31T04:22:51;100005.81;;;14.90;100.00
60465;BME280;46314;52.392;9.758;2023-08-31T04:25:17;100014.16;;;14.65;100.00
60465;BME280;46314;52.392;9.758;2023-08-31T04:27:44;100013.59;;;14.84;100.00
60465;BME280;46314;52.392;9.758;2023-08-31T04:30:11;100021.66;;;14.31;100.00
60465;BME280;46314;52.392;9.758;2023-08-31T04:32:39;100031.88;;;14.27;100.00
60465;BME280;46314;52.392;9.758;2023-08-31T04:35:06;100030.47;;;14.88;100.00
60465;BME280;46314;52.392;9.758;2023-08-31T04:37:33;100027.19;;;14.52;100.00
60465;BME280;46314;52.392;9.758;2023-08-31T04:39:59;100029.22;;;15.10;100.00
60465;BME280;46314;52.392;9.758;2023-08-31T04:42:26;100024.41;;;14.52;100.00
60465;BME280;46314;52.392;9.758;2023-08-31T04:44:52;100027.06;;;14.70;100.00
60465;BME280;46314;52.392;9.758;2023-08-31T04:47:19;100024.81;;;14.63;100.00
60465;BME280;46314;52.392;9.758;2023-08-31T04:49:47;100030.59;;;15.04;100.00
60465;BME280;46314;52.392;9.758;2023-08-31T04:52:13;100026.75;;;14.96;100.00
60465;BME280;46314;52.392;9.758;2023-08-31T04:54:40;100030.69;;;14.95;100.00
60465;BME280;46314;52.392;9.758;2023-08-31T04:57:06;100026.53;;;14.89;100.00
60465;BME280;46314;52.392;9.758;2023-08-31T04:59:33;100030.28;;;14.38;100.00
60465;BME280;46314;52.392;9.758;2023-08-31T05:01:59;100030.38;;;14.30;100.00
60465;BME280;46314;52.392;9.758;2023-08-31T05:04:26;100024.41;;;14.52;100.00
60465;BME280;46314;52.392;9.758;2023-08-31T05:06:53;100035.63;;;14.65;100.00
60465;BME280;46314;52.392;9.758;2023-08-31T05:09:20;100033.69;;;14.44;100.00
60465;BME280;46314;52.392;9.758;2023-08-31T05:11:47;100035.41;;;14.15;100.00
60465;BME280;46314;52.392;9.758;2023-08-31T05:14:13;100046.94;;;14.47;100.00
60465;BME280;46314;52.392;9.758;2023-08-31T05:16:40;100051.47;;;14.61;100.00
60465;BME280;46314;52.392;9.758;2023-08-31T05:19:06;100055.19;;;14.65;100.00
60465;BME280;46314;52.392;9.758;2023-08-31T05:21:32;100059.75;;;13.85;100.00
60465;BME280;46314;52.392;9.758;2023-08-31T05:24:00;100044.31;;;14.09;100.00
60465;BME280;46314;52.392;9.758;2023-08-31T05:26:27;100051.84;;;14.50;100.00
60465;BME280;46314;52.392;9.758;2023-08-31T05:28:53;100048.19;;;14.58;100.00
60465;BME280;46314;52.392;9.758;2023-08-31T05:31:20;100066.13;;;15.28;100.00
60465;BME280;46314;52.392;9.758;2023-08-31T05:33:46;100069.13;;;15.10;100.00
60465;BME280;46314;52.392;9.758;2023-08-31T05:36:13;100068.69;;;15.21;100.00
60465;BME280;46314;52.392;9.758;2023-08-31T05:38:39;100066.22;;;14.61;100.00
60465;BME280;46314;52.392;9.758;2023-08-31T05:41:08;100067.84;;;14.95;100.00
60465;BME280;46314;52.392;9.758;2023-08-31T05:43:35;100065.59;;;14.89;100.00
60465;BME280;46314;52.392;9.758;2023-08-31T05:46:02;100058.88;;;14.90;100.00
60465;BME280;46314;52.392;9.758;2023-08-31T05:48:30;100060.41;;;15.12;100.00
60465;BME280;46314;52.392;9.758;2023-08-31T05:50:56;100060.09;;;14.68;100.00
60465;BME280;46314;52.392;9.758;2023-08-31T05:53:23;100066.22;;;14.40;100.00
60465;BME280;46314;52.392;9.758;2023-08-31T05:55:49;100071.66;;;14.36;100.00
60465;BME280;46314;52.392;9.758;2023-08-31T05:58:17;100075.28;;;14.58;100.00
60465;BME280;46314;52.392;9.758;2023-08-31T06:00:43;100078.91;;;14.37;100.00
60465;BME280;46314;52.392;9.758;2023-08-31T06:03:10;100078.03;;;14.79;100.00
60465;BME280;46314;52.392;9.758;2023-08-31T06:05:37;100081.72;;;15.17;100.00
60465;BME280;46314;52.392;9.758;2023-08-31T06:08:04;100080.56;;;15.42;100.00
60465;BME280;46314;52.392;9.758;2023-08-31T06:10:31;100086.25;;;15.21;100.00
60465;BME280;46314;52.392;9.758;2023-08-31T06:12:58;100088.38;;;15.61;100.00
60465;BME280;46314;52.392;9.758;2023-08-31T06:15:26;100081.75;;;15.29;100.00
60465;BME280;46314;52.392;9.758;2023-08-31T06:17:53;100086.38;;;15.25;100.00
60465;BME280;46314;52.392;9.758;2023-08-31T06:20:19;100092.38;;;15.73;100.00
60465;BME280;46314;52.392;9.758;2023-08-31T06:22:46;100095.16;;;15.73;99.58
60465;BME280;46314;52.392;9.758;2023-08-31T06:25:12;100091.88;;;15.95;100.00
60465;BME280;46314;52.392;9.758;2023-08-31T06:27:39;100095.88;;;15.94;100.00
60465;BME280;46314;52.392;9.758;2023-08-31T06:30:07;100089.97;;;16.24;99.59
60465;BME280;46314;52.392;9.758;2023-08-31T06:32:35;100097.25;;;16.69;99.42
60465;BME280;46314;52.392;9.758;2023-08-31T06:35:02;100096.66;;;16.47;100.00
60465;BME280;46314;52.392;9.758;2023-08-31T06:37:29;100091.19;;;16.39;99.60
60465;BME280;46314;52.392;9.758;2023-08-31T06:39:55;100087.91;;;16.77;96.84
60465;BME280;46314;52.392;9.758;2023-08-31T06:42:22;100091.31;;;16.71;98.04
60465;BME280;46314;52.392;9.758;2023-08-31T06:44:50;100089.00;;;16.32;95.44
60465;BME280;46314;52.392;9.758;2023-08-31T06:47:17;100084.50;;;16.84;96.30
60465;BME280;46314;52.392;9.758;2023-08-31T06:49:45;100085.97;;;16.65;95.03
60465;BME280;46314;52.392;9.758;2023-08-31T06:52:11;100078.34;;;16.09;97.80
60465;BME280;46314;52.392;9.758;2023-08-31T06:54:56;100084.44;;;15.87;100.00
60465;BME280;46314;52.392;9.758;2023-08-31T06:57:23;100085.03;;;16.33;100.00
60465;BME280;46314;52.392;9.758;2023-08-31T06:59:50;100086.78;;;16.38;99.12
60465;BME280;46314;52.392;9.758;2023-08-31T07:02:16;100080.19;;;16.18;99.93
60465;BME280;46314;52.392;9.758;2023-08-31T07:04:44;100086.78;;;15.97;100.00
60465;BME280;46314;52.392;9.758;2023-08-31T07:07:11;100097.25;;;15.76;100.00
60465;BME280;46314;52.392;9.758;2023-08-31T07:09:38;100093.97;;;15.49;100.00
60465;BME280;46314;52.392;9.758;2023-08-31T07:12:05;100097.00;;;15.93;99.71
60465;BME280;46314;52.392;9.758;2023-08-31T07:14:32;100102.81;;;16.13;100.00
60465;BME280;46314;52.392;9.758;2023-08-31T07:16:58;100102.53;;;16.30;96.46
60465;BME280;46314;52.392;9.758;2023-08-31T07:19:25;100101.34;;;15.78;100.00
60465;BME280;46314;52.392;9.758;2023-08-31T07:21:53;100102.25;;;15.95;99.09
60465;BME280;46314;52.392;9.758;2023-08-31T07:24:19;100094.41;;;16.13;98.54
60465;BME280;46314;52.392;9.758;2023-08-31T07:26:46;100104.50;;;16.70;94.01
60465;BME280;46314;52.392;9.758;2023-08-31T07:29:12;100097.94;;;16.50;96.11
60465;BME280;46314;52.392;9.758;2023-08-31T07:31:39;100095.25;;;16.54;95.36
60465;BME280;46314;52.392;9.758;2023-08-31T07:34:05;100100.69;;;16.34;95.01
60465;BME280;46314;52.392;9.758;2023-08-31T07:36:32;100112.94;;;16.58;95.34
60465;BME280;46314;52.392;9.758;2023-08-31T07:39:00;100109.97;;;16.38;93.10
60465;BME280;46314;52.392;9.758;2023-08-31T07:41:27;100114.38;;;17.08;94.35
60465;BME280;46314;52.392;9.758;2023-08-31T07:43:53;100107.59;;;17.25;91.24
60465;BME280;46314;52.392;9.758;2023-08-31T07:46:30;100107.53;;;16.37;95.78
60465;BME280;46314;52.392;9.758;2023-08-31T07:48:57;100105.09;;;16.63;91.55
60465;BME280;46314;52.392;9.758;2023-08-31T07:51:24;100117.31;;;16.02;97.04
60465;BME280;46314;52.392;9.758;2023-08-31T07:53:50;100103.09;;;17.05;94.75
60465;BME280;46314;52.392;9.758;2023-08-31T07:56:18;100110.69;;;17.52;91.96
60465;BME280;46314;52.392;9.758;2023-08-31T07:58:44;100108.13;;;17.15;90.90
60465;BME280;46314;52.392;9.758;2023-08-31T08:01:11;100115.22;;;16.40;91.22
60465;BME280;46314;52.392;9.758;2023-08-31T08:03:37;100123.16;;;17.22;89.37
60465;BME280;46314;52.392;9.758;2023-08-31T08:06:04;100135.13;;;16.91;93.83
60465;BME280;46314;52.392;9.758;2023-08-31T08:08:31;100136.19;;;16.87;90.97
60465;BME280;46314;52.392;9.758;2023-08-31T08:10:57;100136.84;;;17.40;89.32
60465;BME280;46314;52.392;9.758;2023-08-31T08:13:25;100139.97;;;17.07;89.12
60465;BME280;46314;52.392;9.758;2023-08-31T08:15:51;100139.19;;;17.54;88.77
60465;BME280;46314;52.392;9.758;2023-08-31T08:18:18;100148.00;;;17.08;88.54
60465;BME280;46314;52.392;9.758;2023-08-31T08:20:47;100145.88;;;17.33;86.98
60465;BME280;46314;52.392;9.758;2023-08-31T08:23:14;100138.28;;;17.50;88.39
60465;BME280;46314;52.392;9.758;2023-08-31T08:25:41;100143.25;;;18.04;84.74
60465;BME280;46314;52.392;9.758;2023-08-31T08:28:07;100142.88;;;18.06;84.91
60465;BME280;46314;52.392;9.758;2023-08-31T08:30:36;100151.19;;;18.18;81.60
60465;BME280;46314;52.392;9.758;2023-08-31T08:33:02;100154.03;;;17.38;85.06
60465;BME280;46314;52.392;9.758;2023-08-31T08:35:29;100139.34;;;18.09;84.28
60465;BME280;46314;52.392;9.758;2023-08-31T08:37:55;100136.84;;;18.04;84.26
60465;BME280;46314;52.392;9.758;2023-08-31T08:40:22;100150.03;;;18.19;82.49
60465;BME280;46314;52.392;9.758;2023-08-31T08:42:52;100155.66;;;18.03;82.47
60465;BME280;46314;52.392;9.758;2023-08-31T08:45:20;100145.69;;;18.06;81.02
60465;BME280;46314;52.392;9.758;2023-08-31T08:47:53;100143.78;;;18.45;79.69
60465;BME280;46314;52.392;9.758;2023-08-31T08:50:20;100150.34;;;17.98;83.05
60465;BME280;46314;52.392;9.758;2023-08-31T08:52:48;100145.06;;;18.12;81.66
60465;BME280;46314;52.392;9.758;2023-08-31T08:55:14;100146.25;;;18.66;81.99
60465;BME280;46314;52.392;9.758;2023-08-31T08:57:41;100149.28;;;18.22;81.17
60465;BME280;46314;52.392;9.758;2023-08-31T09:00:09;100144.38;;;17.08;85.96
60465;BME280;46314;52.392;9.758;2023-08-31T09:02:35;100141.47;;;17.96;83.58
60465;BME280;46314;52.392;9.758;2023-08-31T09:05:04;100154.66;;;17.79;84.19
60465;BME280;46314;52.392;9.758;2023-08-31T09:07:34;100147.88;;;17.96;81.95
60465;BME280;46314;52.392;9.758;2023-08-31T09:10:01;100140.06;;;18.06;82.13
60465;BME280;46314;52.392;9.758;2023-08-31T09:12:27;100142.38;;;17.68;83.08
60465;BME280;46314;52.392;9.758;2023-08-31T09:14:58;100149.97;;;18.00;81.87
60465;BME280;46314;52.392;9.758;2023-08-31T09:17:24;100137.91;;;17.51;85.05
60465;BME280;46314;52.392;9.758;2023-08-31T09:19:59;100145.72;;;18.25;80.49
60465;BME280;46314;52.392;9.758;2023-08-31T09:22:27;100140.81;;;17.55;82.94
60465;BME280;46314;52.392;9.758;2023-08-31T09:24:53;100139.91;;;17.98;82.50
60465;BME280;46314;52.392;9.758;2023-08-31T09:27:20;100140.97;;;18.10;82.49
60465;BME280;46314;52.392;9.758;2023-08-31T09:29:47;100134.22;;;18.30;80.10
60465;BME280;46314;52.392;9.758;2023-08-31T09:32:16;100129.25;;;18.59;79.34
60465;BME280;46314;52.392;9.758;2023-08-31T09:34:42;100138.19;;;17.46;83.31
60465;BME280;46314;52.392;9.758;2023-08-31T09:37:09;100137.84;;;17.95;80.33
60465;BME280;46314;52.392;9.758;2023-08-31T09:39:37;100138.75;;;18.00;81.96
60465;BME280;46314;52.392;9.758;2023-08-31T09:42:05;100140.91;;;17.58;83.12
60465;BME280;46314;52.392;9.758;2023-08-31T09:44:32;100143.88;;;17.82;82.66
60465;BME280;46314;52.392;9.758;2023-08-31T09:46:58;100153.19;;;18.17;79.49
60465;BME280;46314;52.392;9.758;2023-08-31T09:49:25;100129.50;;;17.35;82.28
60465;BME280;46314;52.392;9.758;2023-08-31T09:51:53;100137.91;;;17.83;81.60
60465;BME280;46314;52.392;9.758;2023-08-31T09:54:20;100139.78;;;18.66;78.16
60465;BME280;46314;52.392;9.758;2023-08-31T09:56:48;100138.38;;;18.37;79.86
60465;BME280;46314;52.392;9.758;2023-08-31T09:59:15;100131.84;;;18.32;79.86
60465;BME280;46314;52.392;9.758;2023-08-31T10:01:44;100137.63;;;18.40;77.53
60465;BME280;46314;52.392;9.758;2023-08-31T10:04:11;100130.44;;;17.87;80.03
60465;BME280;46314;52.392;9.758;2023-08-31T10:06:38;100136.88;;;18.23;79.20
60465;BME280;46314;52.392;9.758;2023-08-31T10:09:06;100125.34;;;17.77;81.03
60465;BME280;46314;52.392;9.758;2023-08-31T10:11:33;100144.81;;;18.02;81.26
60465;BME280;46314;52.392;9.758;2023-08-31T10:14:03;100137.81;;;18.47;76.85
60465;BME280;46314;52.392;9.758;2023-08-31T10:16:30;100134.09;;;18.62;76.23
60465;BME280;46314;52.392;9.758;2023-08-31T10:18:58;100144.00;;;19.15;74.21
60465;BME280;46314;52.392;9.758;2023-08-31T10:21:25;100145.47;;;19.28;73.88
60465;BME280;46314;52.392;9.758;2023-08-31T10:23:51;100142.66;;;18.50;74.63
60465;BME280;46314;52.392;9.758;2023-08-31T10:26:26;100146.31;;;18.50;78.12
60465;BME280;46314;52.392;9.758;2023-08-31T10:28:53;100136.03;;;18.97;75.53
60465;BME280;46314;52.392;9.758;2023-08-31T10:31:21;100138.56;;;19.02;74.85
60465;BME280;46314;52.392;9.758;2023-08-31T10:33:55;100141.78;;;18.46;75.88
60465;BME280;46314;52.392;9.758;2023-08-31T10:36:22;100144.75;;;18.72;75.97
60465;BME280;46314;52.392;9.758;2023-08-31T10:39:00;100141.88;;;19.31;74.18
60465;BME280;46314;52.392;9.758;2023-08-31T10:41:33;100134.47;;;19.65;74.28
60465;BME280;46314;52.392;9.758;2023-08-31T10:44:02;100149.06;;;18.66;74.98
60465;BME280;46314;52.392;9.758;2023-08-31T10:46:45;100134.03;;;19.40;71.48
60465;BME280;46314;52.392;9.758;2023-08-31T10:49:13;100142.59;;;19.24;72.10
60465;BME280;46314;52.392;9.758;2023-08-31T10:51:41;100150.72;;;19.10;72.70
60465;BME280;46314;52.392;9.758;2023-08-31T10:54:09;100150.00;;;18.74;73.65
60465;BME280;46314;52.392;9.758;2023-08-31T10:56:52;100134.41;;;19.39;70.65
60465;BME280;46314;52.392;9.758;2023-08-31T10:59:19;100147.41;;;19.04;74.00
60465;BME280;46314;52.392;9.758;2023-08-31T11:01:54;100149.97;;;18.90;76.36
60465;BME280;46314;52.392;9.758;2023-08-31T11:04:22;100130.03;;;19.41;71.11
60465;BME280;46314;52.392;9.758;2023-08-31T11:06:50;100139.16;;;19.58;70.22
60465;BME280;46314;52.392;9.758;2023-08-31T11:09:34;100147.91;;;19.53;69.09
60465;BME280;46314;52.392;9.758;2023-08-31T11:12:01;100140.53;;;19.21;69.61
60465;BME280;46314;52.392;9.758;2023-08-31T11:14:28;100142.47;;;20.13;66.89
60465;BME280;46314;52.392;9.758;2023-08-31T11:16:56;100131.31;;;20.20;66.83
60465;BME280;46314;52.392;9.758;2023-08-31T11:19:22;100137.47;;;19.76;68.13
60465;BME280;46314;52.392;9.758;2023-08-31T11:21:49;100130.41;;;19.86;68.24
60465;BME280;46314;52.392;9.758;2023-08-31T11:24:16;100129.47;;;20.32;65.74
60465;BME280;46314;52.392;9.758;2023-08-31T11:26:43;100140.03;;;20.12;66.15
60465;BME280;46314;52.392;9.758;2023-08-31T11:29:10;100128.97;;;20.53;64.65
60465;BME280;46314;52.392;9.758;2023-08-31T11:31:39;100136.72;;;20.33;65.12
60465;BME280;46314;52.392;9.758;2023-08-31T11:34:11;100136.16;;;20.50;65.14
60465;BME280;46314;52.392;9.758;2023-08-31T11:36:39;100139.69;;;20.43;63.62
60465;BME280;46314;52.392;9.758;2023-08-31T11:39:08;100142.06;;;20.41;63.87
60465;BME280;46314;52.392;9.758;2023-08-31T11:41:35;100143.63;;;20.35;65.69
60465;BME280;46314;52.392;9.758;2023-08-31T11:44:03;100141.78;;;20.50;64.95
60465;BME280;46314;52.392;9.758;2023-08-31T11:46:30;100141.31;;;21.09;63.46
60465;BME280;46314;52.392;9.758;2023-08-31T11:48:59;100141.19;;;21.32;63.98
60465;BME280;46314;52.392;9.758;2023-08-31T11:51:27;100136.78;;;20.36;65.42
60465;BME280;46314;52.392;9.758;2023-08-31T11:53:54;100139.91;;;20.88;61.79
60465;BME280;46314;52.392;9.758;2023-08-31T11:56:20;100121.69;;;20.21;64.65
60465;BME280;46314;52.392;9.758;2023-08-31T11:58:50;100135.81;;;20.55;62.42
60465;BME280;46314;52.392;9.758;2023-08-31T12:01:30;100132.16;;;20.51;62.71
60465;BME280;46314;52.392;9.758;2023-08-31T12:03:56;100124.94;;;20.23;63.56
60465;BME280;46314;52.392;9.758;2023-08-31T12:06:23;100132.81;;;20.41;62.57
60465;BME280;46314;52.392;9.758;2023-08-31T12:08:50;100137.91;;;20.92;61.97
60465;BME280;46314;52.392;9.758;2023-08-31T12:11:19;100130.25;;;20.29;63.55
60465;BME280;46314;52.392;9.758;2023-08-31T12:13:45;100133.56;;;20.98;61.96
60465;BME280;46314;52.392;9.758;2023-08-31T12:16:12;100135.28;;;21.10;59.29
60465;BME280;46314;52.392;9.758;2023-08-31T12:18:39;100136.97;;;21.56;58.88
60465;BME280;46314;52.392;9.758;2023-08-31T12:21:06;100143.09;;;21.24;59.38
60465;BME280;46314;52.392;9.758;2023-08-31T12:23:32;100132.91;;;21.50;58.63
60465;BME280;46314;52.392;9.758;2023-08-31T12:26:01;100146.75;;;20.91;61.68
60465;BME280;46314;52.392;9.758;2023-08-31T12:28:27;100135.53;;;21.32;60.13
60465;BME280;46314;52.392;9.758;2023-08-31T12:30:54;100137.88;;;21.26;59.13
60465;BME280;46314;52.392;9.758;2023-08-31T12:33:21;100132.50;;;20.76;60.21
60465;BME280;46314;52.392;9.758;2023-08-31T12:35:48;100134.56;;;20.49;61.65
60465;BME280;46314;52.392;9.758;2023-08-31T12:38:15;100141.56;;;20.05;62.09
60465;BME280;46314;52.392;9.758;2023-08-31T12:40:41;100127.38;;;20.55;61.88
60465;BME280;46314;52.392;9.758;2023-08-31T12:43:09;100142.13;;;20.45;60.59
60465;BME280;46314;52.392;9.758;2023-08-31T12:45:36;100147.03;;;20.21;61.51
60465;BME280;46314;52.392;9.758;2023-08-31T12:48:03;100144.53;;;20.73;60.50
60465;BME280;46314;52.392;9.758;2023-08-31T12:50:29;100147.56;;;20.31;61.99